createdAt,value
2023-08-21T00:00:14.656Z,98949.63
2023-08-21T00:01:16.442Z,98940.06
2023-08-21T00:02:18.180Z,98939.75
2023-08-21T00:03:19.984Z,98941.66
2023-08-21T00:04:21.861Z,98946.66
2023-08-21T00:05:23.588Z,98948.88
2023-08-21T00:06:25.371Z,98944.84
2023-08-21T00:07:27.096Z,98946.25
2023-08-21T00:08:28.830Z,98948.16
2023-08-21T00:09:30.591Z,98943.06
2023-08-21T00:10:34.159Z,98943.66
2023-08-21T00:11:36.324Z,98950.97
2023-08-21T00:12:38.202Z,98944.25
2023-08-21T00:13:40.295Z,98948.06
2023-08-21T00:14:42.036Z,98938.38
2023-08-21T00:15:43.830Z,98947.59
2023-08-21T00:16:45.610Z,98953.00
2023-08-21T00:17:48.398Z,98944.38
2023-08-21T00:18:50.424Z,98941.38
2023-08-21T00:19:52.354Z,98945.47
2023-08-21T00:20:54.114Z,98944.47
2023-08-21T00:21:55.962Z,98952.09
2023-08-21T00:22:58.058Z,98950.47
2023-08-21T00:23:59.821Z,98961.78
2023-08-21T00:25:01.563Z,98955.88
2023-08-21T00:26:03.574Z,98953.19
2023-08-21T00:27:05.407Z,98954.28
2023-08-21T00:28:08.123Z,98955.72
2023-08-21T00:29:09.893Z,98954.91
2023-08-21T00:30:13.882Z,98955.22
2023-08-21T00:31:15.662Z,98950.19
2023-08-21T00:32:17.470Z,98963.09
2023-08-21T00:33:19.221Z,98960.41
2023-08-21T00:34:20.966Z,98959.59
2023-08-21T00:35:22.714Z,98959.41
2023-08-21T00:36:24.558Z,98963.22
2023-08-21T00:37:26.354Z,98953.09
2023-08-21T00:38:28.188Z,98963.81
2023-08-21T00:39:29.927Z,98952.22
2023-08-21T00:40:32.708Z,98957.31
2023-08-21T00:41:35.584Z,98953.00
2023-08-21T00:42:37.623Z,98953.31
2023-08-21T00:43:39.618Z,98946.91
2023-08-21T00:44:41.425Z,98952.59
2023-08-21T00:45:46.097Z,98948.13
2023-08-21T00:46:48.128Z,98949.72
2023-08-21T00:47:50.213Z,98948.91
2023-08-21T00:48:52.697Z,98947.59
2023-08-21T00:49:54.564Z,98955.50
2023-08-21T00:50:57.068Z,98956.31
2023-08-21T00:51:58.819Z,98956.59
2023-08-21T00:53:01.775Z,98950.69
2023-08-21T00:54:03.647Z,98957.69
2023-08-21T00:55:05.771Z,98960.69
2023-08-21T00:56:08.067Z,98960.78
2023-08-21T00:57:11.236Z,98957.56
2023-08-21T00:58:14.052Z,98962.75
2023-08-21T00:59:15.924Z,98958.56
2023-08-21T01:00:17.719Z,98951.28
2023-08-21T01:01:21.597Z,98951.06
2023-08-21T01:02:23.489Z,98960.25
2023-08-21T01:03:25.508Z,98962.16
2023-08-21T01:04:27.292Z,98952.56
2023-08-21T01:05:29.171Z,98952.06
2023-08-21T01:06:31.042Z,98955.56
2023-08-21T01:07:43.333Z,98947.25
2023-08-21T01:09:08.512Z,98957.81
2023-08-21T01:10:22.222Z,98949.03
2023-08-21T01:11:36.904Z,98948.81
2023-08-21T01:12:49.894Z,98954.81
2023-08-21T01:14:07.725Z,98952.38
2023-08-21T01:15:11.101Z,98958.09
2023-08-21T01:16:15.112Z,98951.69
2023-08-21T01:17:19.056Z,98955.50
2023-08-21T01:18:22.421Z,98964.09
2023-08-21T01:19:33.043Z,98971.69
2023-08-21T01:20:34.965Z,98958.25
2023-08-21T01:21:36.763Z,98963.06
2023-08-21T01:22:46.852Z,98958.19
2023-08-21T01:23:48.634Z,98950.97
2023-08-21T01:24:50.345Z,98958.19
2023-08-21T01:25:52.103Z,98956.38
2023-08-21T01:26:53.869Z,98958.53
2023-08-21T01:27:55.605Z,98953.97
2023-08-21T01:28:57.373Z,98957.56
2023-08-21T01:30:00.035Z,98954.84
2023-08-21T01:31:04.820Z,98961.06
2023-08-21T01:32:15.208Z,98958.34
2023-08-21T01:33:18.458Z,98953.25
2023-08-21T01:34:20.869Z,98957.03
2023-08-21T01:35:23.680Z,98955.44
2023-08-21T01:36:26.676Z,98955.72
2023-08-21T01:37:30.149Z,98951.13
2023-08-21T01:38:36.405Z,98957.63
2023-08-21T01:39:38.258Z,98956.81
2023-08-21T01:40:41.289Z,98954.13
2023-08-21T01:41:43.443Z,98956.81
2023-08-21T01:42:45.172Z,98953.03
2023-08-21T01:43:46.978Z,98954.94
2023-08-21T01:44:50.864Z,98965.44
2023-08-21T01:45:52.666Z,98957.63
2023-08-21T01:46:54.933Z,98956.53
2023-08-21T01:47:56.691Z,98952.22
2023-08-21T01:48:58.449Z,98953.03
2023-08-21T01:50:00.248Z,98955.72
2023-08-21T01:51:03.748Z,98955.22
2023-08-21T01:52:05.932Z,98964.13
2023-08-21T01:53:07.696Z,98961.41
2023-08-21T01:54:09.476Z,98959.22
2023-08-21T01:55:11.747Z,98957.84
2023-08-21T01:56:13.469Z,98954.06
2023-08-21T01:57:15.462Z,98963.47
2023-08-21T01:58:17.199Z,98951.06
2023-08-21T01:59:19.029Z,98931.00
2023-08-21T02:00:20.767Z,98954.84
2023-08-21T02:01:22.711Z,98952.44
2023-08-21T02:02:24.543Z,98946.75
2023-08-21T02:03:27.066Z,98954.84
2023-08-21T02:04:28.809Z,98953.44
2023-08-21T02:05:30.574Z,98947.75
2023-08-21T02:06:32.361Z,98950.44
2023-08-21T02:07:34.303Z,98940.47
2023-08-21T02:08:36.267Z,98940.47
2023-08-21T02:09:38.116Z,98945.28
2023-08-21T02:10:51.452Z,98950.09
2023-08-21T02:11:53.204Z,98947.38
2023-08-21T02:12:55.515Z,98949.28
2023-08-21T02:13:57.297Z,98947.38
2023-08-21T02:14:59.040Z,98943.31
2023-08-21T02:16:01.119Z,98946.47
2023-08-21T02:17:04.055Z,98948.88
2023-08-21T02:18:06.186Z,98939.19
2023-08-21T02:19:08.140Z,98951.59
2023-08-21T02:20:11.176Z,98951.28
2023-08-21T02:21:13.186Z,98949.09
2023-08-21T02:22:14.953Z,98947.72
2023-08-21T02:23:19.495Z,98949.31
2023-08-21T02:24:21.263Z,98944.44
2023-08-21T02:25:23.119Z,98947.59
2023-08-21T02:26:24.929Z,98941.44
2023-08-21T02:27:26.703Z,98946.50
2023-08-21T02:28:28.636Z,98938.13
2023-08-21T02:29:30.351Z,98940.53
2023-08-21T02:30:32.131Z,98943.16
2023-08-21T02:31:33.917Z,98941.75
2023-08-21T02:32:36.421Z,98936.34
2023-08-21T02:33:38.673Z,98941.44
2023-08-21T02:34:41.134Z,98943.53
2023-08-21T02:35:42.942Z,98928.16
2023-08-21T02:36:44.717Z,98940.75
2023-08-21T02:37:46.527Z,98936.34
2023-08-21T02:38:48.293Z,98943.69
2023-08-21T02:39:50.044Z,98942.38
2023-08-21T02:40:51.888Z,98946.66
2023-08-21T02:41:53.679Z,98941.34
2023-08-21T02:42:55.425Z,98945.38
2023-08-21T02:43:57.159Z,98941.06
2023-08-21T02:44:58.967Z,98946.16
2023-08-21T02:46:00.878Z,98941.88
2023-08-21T02:47:02.620Z,98939.25
2023-08-21T02:48:04.753Z,98942.56
2023-08-21T02:49:06.503Z,98946.53
2023-08-21T02:50:10.776Z,98946.34
2023-08-21T02:51:12.533Z,98917.53
2023-08-21T02:52:14.366Z,98942.22
2023-08-21T02:53:16.155Z,98947.03
2023-08-21T02:54:17.894Z,98947.03
2023-08-21T02:55:19.875Z,98943.94
2023-08-21T02:56:21.602Z,98948.00
2023-08-21T02:57:24.188Z,98943.50
2023-08-21T02:58:25.900Z,98948.47
2023-08-21T02:59:27.976Z,98947.91
2023-08-21T03:00:29.784Z,98943.66
2023-08-21T03:01:31.499Z,98938.97
2023-08-21T03:02:34.096Z,98937.56
2023-08-21T03:03:37.047Z,98939.53
2023-08-21T03:04:38.812Z,98940.09
2023-08-21T03:05:41.743Z,98938.50
2023-08-21T03:06:43.577Z,98941.47
2023-08-21T03:07:45.406Z,98934.19
2023-08-21T03:08:47.338Z,98941.72
2023-08-21T03:09:50.396Z,98950.88
2023-08-21T03:10:52.138Z,98941.72
2023-08-21T03:11:53.924Z,98936.47
2023-08-21T03:12:56.518Z,98948.59
2023-08-21T03:13:58.250Z,98938.59
2023-08-21T03:15:00.097Z,98943.47
2023-08-21T03:16:01.997Z,98945.06
2023-08-21T03:17:03.818Z,98940.78
2023-08-21T03:18:05.674Z,98933.78
2023-08-21T03:19:08.227Z,98936.75
2023-08-21T03:20:10.250Z,98938.75
2023-08-21T03:21:11.965Z,98946.69
2023-08-21T03:22:13.990Z,98937.91
2023-08-21T03:23:15.791Z,98937.66
2023-08-21T03:24:17.538Z,98948.69
2023-08-21T03:25:19.282Z,98940.78
2023-08-21T03:26:21.108Z,98938.59
2023-08-21T03:27:24.237Z,98950.72
2023-08-21T03:28:25.960Z,98946.91
2023-08-21T03:29:27.748Z,98942.09
2023-08-21T03:30:29.673Z,98953.41
2023-08-21T03:31:31.991Z,98942.91
2023-08-21T03:32:34.371Z,98944.66
2023-08-21T03:33:36.085Z,98952.25
2023-08-21T03:34:37.815Z,98945.34
2023-08-21T03:35:41.437Z,98952.63
2023-08-21T03:36:43.199Z,98954.19
2023-08-21T03:37:45.093Z,98932.59
2023-08-21T03:38:46.901Z,98948.03
2023-08-21T03:39:48.635Z,98946.44
2023-08-21T03:40:50.368Z,98948.53
2023-08-21T03:41:52.085Z,98945.03
2023-08-21T03:42:53.866Z,98945.81
2023-08-21T03:43:55.626Z,98946.06
2023-08-21T03:44:57.407Z,98950.34
2023-08-21T03:45:59.657Z,98936.94
2023-08-21T03:47:01.582Z,98955.22
2023-08-21T03:48:03.606Z,98949.25
2023-08-21T03:49:05.561Z,98949.31
2023-08-21T03:50:07.729Z,98947.00
2023-08-21T03:51:09.482Z,98948.09
2023-08-21T03:52:11.416Z,98949.34
2023-08-21T03:53:13.143Z,98951.41
2023-08-21T03:54:14.905Z,98948.16
2023-08-21T03:55:16.728Z,98945.19
2023-08-21T03:56:19.671Z,98954.63
2023-08-21T03:57:21.494Z,98950.28
2023-08-21T03:58:23.314Z,98958.28
2023-08-21T03:59:28.467Z,98953.94
2023-08-21T04:00:30.303Z,98962.44
2023-08-21T04:01:32.125Z,98953.78
2023-08-21T04:02:33.941Z,98960.19
2023-08-21T04:03:35.801Z,98951.22
2023-08-21T04:04:37.589Z,98959.81
2023-08-21T04:05:39.864Z,98954.06
2023-08-21T04:06:41.625Z,98953.41
2023-08-21T04:07:43.434Z,98951.72
2023-08-21T04:08:45.187Z,98954.78
2023-08-21T04:09:47.041Z,98951.13
2023-08-21T04:10:48.819Z,98959.88
2023-08-21T04:11:50.537Z,98954.28
2023-08-21T04:12:52.382Z,98956.31
2023-08-21T04:13:54.102Z,98960.34
2023-08-21T04:14:55.913Z,98959.06
2023-08-21T04:15:58.119Z,98958.88
2023-08-21T04:16:59.917Z,98958.72
2023-08-21T04:18:01.822Z,98953.69
2023-08-21T04:19:03.591Z,98955.41
2023-08-21T04:20:06.033Z,98960.00
2023-08-21T04:21:07.924Z,98963.31
2023-08-21T04:22:09.672Z,98959.28
2023-08-21T04:23:11.578Z,98960.69
2023-08-21T04:24:13.322Z,98961.75
2023-08-21T04:25:15.104Z,98959.63
2023-08-21T04:26:17.006Z,98960.81
2023-08-21T04:27:18.820Z,98969.66
2023-08-21T04:28:20.665Z,98963.53
2023-08-21T04:29:22.457Z,98962.78
2023-08-21T04:30:24.199Z,98959.97
2023-08-21T04:31:26.009Z,98956.63
2023-08-21T04:32:29.240Z,98962.75
2023-08-21T04:33:31.019Z,98966.59
2023-08-21T04:34:34.051Z,98966.66
2023-08-21T04:35:40.048Z,98960.69
2023-08-21T04:36:41.804Z,98960.22
2023-08-21T04:37:49.118Z,98963.44
2023-08-21T04:38:50.850Z,98956.53
2023-08-21T04:39:53.659Z,98963.25
2023-08-21T04:40:55.482Z,98971.56
2023-08-21T04:41:57.338Z,98965.50
2023-08-21T04:42:59.116Z,98958.03
2023-08-21T04:44:01.569Z,98971.59
2023-08-21T04:45:03.818Z,98960.94
2023-08-21T04:46:06.286Z,98967.66
2023-08-21T04:47:28.996Z,98963.03
2023-08-21T04:48:30.780Z,98975.50
2023-08-21T04:49:32.564Z,98976.16
2023-08-21T04:50:34.360Z,98967.91
2023-08-21T04:51:36.245Z,98973.66
2023-08-21T04:52:38.375Z,98964.09
2023-08-21T04:53:40.349Z,98974.31
2023-08-21T04:54:42.233Z,98971.28
2023-08-21T04:55:44.175Z,98975.59
2023-08-21T04:56:45.961Z,98972.25
2023-08-21T04:57:47.726Z,98978.63
2023-08-21T04:58:49.503Z,98975.47
2023-08-21T04:59:51.291Z,98970.34
2023-08-21T05:00:53.106Z,98971.91
2023-08-21T05:01:54.904Z,98979.88
2023-08-21T05:02:56.706Z,98973.16
2023-08-21T05:03:58.571Z,98979.06
2023-08-21T05:05:00.464Z,98972.00
2023-08-21T05:06:02.238Z,98983.47
2023-08-21T05:07:04.635Z,98974.78
2023-08-21T05:08:07.182Z,98977.44
2023-08-21T05:09:08.964Z,98971.91
2023-08-21T05:10:10.913Z,98976.59
2023-08-21T05:11:12.713Z,98971.63
2023-08-21T05:12:14.448Z,98973.22
2023-08-21T05:13:19.016Z,98974.22
2023-08-21T05:14:21.303Z,98978.16
2023-08-21T05:15:23.126Z,98971.19
2023-08-21T05:16:24.915Z,98978.75
2023-08-21T05:17:27.983Z,98976.72
2023-08-21T05:18:29.964Z,98974.44
2023-08-21T05:19:31.762Z,98972.94
2023-08-21T05:20:33.503Z,98975.78
2023-08-21T05:21:35.314Z,98968.91
2023-08-21T05:22:37.371Z,98975.47
2023-08-21T05:23:39.270Z,98972.38
2023-08-21T05:24:41.042Z,98973.09
2023-08-21T05:25:44.602Z,98971.81
2023-08-21T05:26:48.404Z,98977.84
2023-08-21T05:27:50.588Z,98978.41
2023-08-21T05:28:52.438Z,98985.00
2023-08-21T05:29:54.296Z,98981.56
2023-08-21T05:30:57.187Z,98985.84
2023-08-21T05:31:59.426Z,98984.63
2023-08-21T05:33:03.567Z,98981.91
2023-08-21T05:34:05.319Z,98984.69
2023-08-21T05:35:07.192Z,98979.31
2023-08-21T05:36:08.943Z,98978.94
2023-08-21T05:37:11.820Z,98986.03
2023-08-21T05:38:13.625Z,98984.13
2023-08-21T05:39:15.357Z,98985.34
2023-08-21T05:40:17.159Z,98992.28
2023-08-21T05:41:19.412Z,98982.78
2023-08-21T05:42:21.239Z,98983.19
2023-08-21T05:43:23.233Z,98985.09
2023-08-21T05:44:24.989Z,98987.38
2023-08-21T05:45:26.762Z,98981.75
2023-08-21T05:46:28.509Z,98992.59
2023-08-21T05:47:30.427Z,98992.47
2023-08-21T05:48:32.181Z,98995.81
2023-08-21T05:49:33.940Z,98984.31
2023-08-21T05:50:38.062Z,98981.72
2023-08-21T05:51:39.865Z,98983.16
2023-08-21T05:52:43.555Z,98984.19
2023-08-21T05:53:45.573Z,98982.78
2023-08-21T05:54:47.392Z,98976.31
2023-08-21T05:55:49.294Z,98983.94
2023-08-21T05:56:51.041Z,98984.75
2023-08-21T05:57:52.807Z,98988.41
2023-08-21T05:58:54.579Z,98982.63
2023-08-21T05:59:56.368Z,98985.53
2023-08-21T06:00:58.772Z,98984.47
2023-08-21T06:02:03.710Z,98991.56
2023-08-21T06:03:06.136Z,98984.56
2023-08-21T06:04:08.102Z,98985.53
2023-08-21T06:05:10.359Z,98984.78
2023-08-21T06:06:12.467Z,98985.66
2023-08-21T06:07:14.222Z,98986.56
2023-08-21T06:08:15.937Z,98991.28
2023-08-21T06:09:18.702Z,98981.53
2023-08-21T06:10:20.426Z,98986.75
2023-08-21T06:11:22.835Z,98989.94
2023-08-21T06:12:24.594Z,98992.75
2023-08-21T06:13:27.168Z,98985.69
2023-08-21T06:14:31.889Z,98991.31
2023-08-21T06:15:33.680Z,98989.81
2023-08-21T06:16:35.452Z,98987.09
2023-08-21T06:17:38.211Z,98987.94
2023-08-21T06:18:40.022Z,98989.97
2023-08-21T06:19:41.737Z,98993.53
2023-08-21T06:20:46.179Z,98990.78
2023-08-21T06:21:47.903Z,98991.56
2023-08-21T06:22:49.667Z,98989.59
2023-08-21T06:23:51.415Z,98989.59
2023-08-21T06:24:53.181Z,98989.59
2023-08-21T06:25:54.976Z,98990.38
2023-08-21T06:26:59.509Z,98996.66
2023-08-21T06:28:01.231Z,98998.13
2023-08-21T06:29:02.986Z,99002.84
2023-08-21T06:30:05.068Z,99000.50
2023-08-21T06:31:08.681Z,99003.63
2023-08-21T06:32:10.647Z,98993.72
2023-08-21T06:33:12.476Z,98993.31
2023-08-21T06:34:14.830Z,99000.25
2023-08-21T06:35:16.680Z,98989.31
2023-08-21T06:36:18.416Z,99002.66
2023-08-21T06:37:20.200Z,98997.28
2023-08-21T06:38:21.933Z,98998.13
2023-08-21T06:39:23.654Z,99002.88
2023-08-21T06:40:25.471Z,98995.81
2023-08-21T06:41:27.222Z,99008.53
2023-08-21T06:42:28.960Z,98998.31
2023-08-21T06:43:30.722Z,98998.81
2023-08-21T06:44:32.812Z,99003.19
2023-08-21T06:45:34.948Z,99003.97
2023-08-21T06:46:37.781Z,98996.47
2023-08-21T06:47:41.349Z,99000.03
2023-08-21T06:48:43.768Z,98999.63
2023-08-21T06:49:45.512Z,99004.78
2023-08-21T06:50:47.254Z,99005.59
2023-08-21T06:51:49.002Z,99007.16
2023-08-21T06:52:50.733Z,99006.75
2023-08-21T06:53:52.443Z,98997.66
2023-08-21T06:54:54.197Z,99002.44
2023-08-21T06:55:55.956Z,99002.00
2023-08-21T06:56:57.657Z,99001.56
2023-08-21T06:57:59.440Z,99002.38
2023-08-21T06:59:01.209Z,98995.66
2023-08-21T07:00:04.255Z,99002.03
2023-08-21T07:01:08.391Z,98996.50
2023-08-21T07:02:10.251Z,98990.97
2023-08-21T07:03:12.043Z,98993.34
2023-08-21T07:04:15.210Z,98995.69
2023-08-21T07:05:17.059Z,98992.53
2023-08-21T07:06:19.893Z,99006.38
2023-08-21T07:07:21.598Z,98997.28
2023-08-21T07:08:24.346Z,98994.91
2023-08-21T07:09:26.316Z,99003.19
2023-08-21T07:10:28.029Z,98995.22
2023-08-21T07:11:29.805Z,98995.59
2023-08-21T07:12:31.850Z,98999.16
2023-08-21T07:13:33.638Z,99000.72
2023-08-21T07:14:35.385Z,99002.59
2023-08-21T07:15:37.120Z,99002.97
2023-08-21T07:16:38.911Z,98997.34
2023-08-21T07:17:40.670Z,98995.63
2023-08-21T07:18:42.540Z,99001.13
2023-08-21T07:19:47.245Z,98984.38
2023-08-21T07:20:49.414Z,98990.69
2023-08-21T07:21:51.125Z,98996.91
2023-08-21T07:22:52.879Z,98993.19
2023-08-21T07:23:54.589Z,98993.41
2023-08-21T07:24:56.570Z,98998.06
2023-08-21T07:25:58.792Z,98991.09
2023-08-21T07:27:00.646Z,98999.59
2023-08-21T07:28:02.452Z,98991.84
2023-08-21T07:29:05.500Z,98986.84
2023-08-21T07:30:08.385Z,98987.19
2023-08-21T07:31:10.222Z,98990.00
2023-08-21T07:32:12.110Z,98990.69
2023-08-21T07:33:13.951Z,98991.09
2023-08-21T07:34:17.128Z,98993.16
2023-08-21T07:35:19.023Z,98992.50
2023-08-21T07:36:20.793Z,98985.31
2023-08-21T07:37:22.646Z,98985.97
2023-08-21T07:38:24.381Z,98990.59
2023-08-21T07:39:26.144Z,98987.34
2023-08-21T07:40:27.848Z,98988.69
2023-08-21T07:41:30.318Z,98990.81
2023-08-21T07:42:32.090Z,98981.22
2023-08-21T07:43:34.438Z,98985.53
2023-08-21T07:44:36.221Z,98989.16
2023-08-21T07:45:38.464Z,98988.91
2023-08-21T07:46:40.216Z,98987.84
2023-08-21T07:47:42.060Z,98985.13
2023-08-21T07:48:44.506Z,98986.19
2023-08-21T07:49:46.327Z,98980.59
2023-08-21T07:50:57.331Z,98989.75
2023-08-21T07:51:59.124Z,98991.28
2023-08-21T07:53:00.861Z,98983.81
2023-08-21T07:54:02.671Z,98982.75
2023-08-21T07:55:04.688Z,98979.28
2023-08-21T07:56:07.016Z,98980.94
2023-08-21T07:57:08.795Z,98980.81
2023-08-21T07:58:11.289Z,98988.56
2023-08-21T07:59:13.026Z,98990.88
2023-08-21T08:00:15.500Z,98980.44
2023-08-21T08:01:17.837Z,98984.78
2023-08-21T08:02:19.615Z,98988.31
2023-08-21T08:03:21.448Z,98981.94
2023-08-21T08:04:23.290Z,98987.72
2023-08-21T08:05:25.125Z,98979.22
2023-08-21T08:06:26.853Z,98976.16
2023-08-21T08:07:28.569Z,98981.00
2023-08-21T08:08:32.926Z,98981.88
2023-08-21T08:09:34.678Z,98988.34
2023-08-21T08:10:41.236Z,98976.00
2023-08-21T08:11:42.973Z,98983.16
2023-08-21T08:12:45.432Z,98980.72
2023-08-21T08:13:47.203Z,98973.63
2023-08-21T08:14:49.034Z,98972.72
2023-08-21T08:15:50.842Z,98976.78
2023-08-21T08:16:52.909Z,98976.16
2023-08-21T08:17:56.421Z,98974.31
2023-08-21T08:18:59.584Z,98981.66
2023-08-21T08:20:01.344Z,98969.09
2023-08-21T08:21:03.107Z,98971.28
2023-08-21T08:22:04.928Z,98971.09
2023-08-21T08:23:09.575Z,98967.88
2023-08-21T08:24:11.300Z,98970.38
2023-08-21T08:25:13.122Z,98974.31
2023-08-21T08:26:14.930Z,98971.84
2023-08-21T08:27:16.800Z,98965.03
2023-08-21T08:28:18.561Z,98967.94
2023-08-21T08:29:20.320Z,98966.03
2023-08-21T08:30:22.145Z,98969.97
2023-08-21T08:31:25.101Z,98968.91
2023-08-21T08:32:27.913Z,98969.53
2023-08-21T08:33:29.793Z,98963.47
2023-08-21T08:34:31.597Z,98965.13
2023-08-21T08:35:33.302Z,98969.03
2023-08-21T08:36:36.479Z,98974.38
2023-08-21T08:37:40.166Z,98968.50
2023-08-21T08:38:41.955Z,98966.19
2023-08-21T08:39:43.742Z,98957.41
2023-08-21T08:40:47.960Z,98961.69
2023-08-21T08:42:04.094Z,98960.75
2023-08-21T08:43:06.897Z,98959.28
2023-08-21T08:44:09.106Z,98958.31
2023-08-21T08:45:14.546Z,98961.16
2023-08-21T08:46:16.293Z,98954.75
2023-08-21T08:47:19.917Z,98954.69
2023-08-21T08:48:22.906Z,98960.66
2023-08-21T08:49:24.855Z,98948.06
2023-08-21T08:50:29.791Z,98951.22
2023-08-21T08:51:36.063Z,98953.78
2023-08-21T08:52:41.197Z,98956.50
2023-08-21T08:53:43.978Z,98949.56
2023-08-21T08:54:45.843Z,98954.19
2023-08-21T08:55:47.574Z,98946.72
2023-08-21T08:56:49.961Z,98943.25
2023-08-21T08:57:53.682Z,98949.44
2023-08-21T08:58:57.846Z,98944.22
2023-08-21T08:59:59.954Z,98942.91
2023-08-21T09:01:01.962Z,98941.63
2023-08-21T09:02:04.182Z,98943.28
2023-08-21T09:03:06.066Z,98942.59
2023-08-21T09:04:08.122Z,98944.81
2023-08-21T09:05:11.452Z,98943.16
2023-08-21T09:06:13.201Z,98945.97
2023-08-21T09:07:19.324Z,98942.63
2023-08-21T09:08:21.246Z,98940.81
2023-08-21T09:09:24.080Z,98943.19
2023-08-21T09:10:26.617Z,98933.59
2023-08-21T09:11:28.512Z,98940.31
2023-08-21T09:12:33.772Z,98942.38
2023-08-21T09:13:36.298Z,98944.81
2023-08-21T09:14:39.932Z,98935.66
2023-08-21T09:15:44.104Z,98943.63
2023-08-21T09:17:05.431Z,98935.00
2023-08-21T09:18:12.213Z,98934.47
2023-08-21T09:19:23.348Z,98933.44
2023-08-21T09:20:25.168Z,98935.88
2023-08-21T09:21:29.255Z,98941.06
2023-08-21T09:22:31.075Z,98940.06
2023-08-21T09:23:33.180Z,98929.09
2023-08-21T09:24:35.091Z,98921.56
2023-08-21T09:25:40.579Z,98924.66
2023-08-21T09:26:42.398Z,98916.31
2023-08-21T09:27:45.188Z,98918.81
2023-08-21T09:28:47.288Z,98919.97
2023-08-21T09:29:49.136Z,98923.38
2023-08-21T09:30:53.770Z,98919.09
2023-08-21T09:31:57.577Z,98912.53
2023-08-21T09:33:06.190Z,98904.53
2023-08-21T09:34:08.102Z,98912.63
2023-08-21T09:35:15.156Z,98909.88
2023-08-21T09:36:18.072Z,98906.44
2023-08-21T09:37:20.057Z,98901.22
2023-08-21T09:38:22.351Z,98903.06
2023-08-21T09:39:24.156Z,98896.78
2023-08-21T09:40:25.923Z,98897.41
2023-08-21T09:41:28.006Z,98907.25
2023-08-21T09:42:29.709Z,98900.84
2023-08-21T09:43:31.602Z,98909.22
2023-08-21T09:44:40.867Z,98904.53
2023-08-21T09:45:42.594Z,98899.31
2023-08-21T09:46:44.483Z,98889.03
2023-08-21T09:47:46.386Z,98893.72
2023-08-21T09:48:49.095Z,98889.94
2023-08-21T09:49:51.486Z,98879.53
2023-08-21T09:50:53.222Z,98887.84
2023-08-21T09:51:55.683Z,98892.81
2023-08-21T09:52:59.546Z,98883.00
2023-08-21T09:54:04.746Z,98886.81
2023-08-21T09:55:07.124Z,98875.47
2023-08-21T09:56:09.931Z,98891.69
2023-08-21T09:57:13.906Z,98871.09
2023-08-21T09:58:17.368Z,98880.56
2023-08-21T09:59:19.931Z,98874.50
2023-08-21T10:00:21.829Z,98884.13
2023-08-21T10:01:24.150Z,98881.75
2023-08-21T10:02:27.637Z,98884.66
2023-08-21T10:03:30.995Z,98873.44
2023-08-21T10:04:33.687Z,98878.41
2023-08-21T10:05:38.229Z,98879.88
2023-08-21T10:06:40.224Z,98872.97
2023-08-21T10:07:43.620Z,98875.78
2023-08-21T10:08:50.111Z,98871.34
2023-08-21T10:09:57.858Z,98873.41
2023-08-21T10:11:03.149Z,98873.44
2023-08-21T10:12:06.829Z,98878.75
2023-08-21T10:13:10.258Z,98867.56
2023-08-21T10:14:12.912Z,98858.53
2023-08-21T10:15:15.109Z,98864.63
2023-08-21T10:16:24.687Z,98874.44
2023-08-21T10:17:26.577Z,98864.44
2023-08-21T10:18:32.324Z,98866.88
2023-08-21T10:19:34.141Z,98862.25
2023-08-21T10:20:37.696Z,98866.88
2023-08-21T10:21:39.446Z,98860.34
2023-08-21T10:22:47.772Z,98854.81
2023-08-21T10:23:51.739Z,98865.66
2023-08-21T10:25:00.837Z,98852.66
2023-08-21T10:26:09.552Z,98861.50
2023-08-21T10:27:12.479Z,98852.44
2023-08-21T10:28:14.621Z,98860.88
2023-08-21T10:29:17.733Z,98858.28
2023-08-21T10:30:27.530Z,98849.84
2023-08-21T10:31:41.221Z,98849.38
2023-08-21T10:32:48.300Z,98850.47
2023-08-21T10:33:50.078Z,98846.41
2023-08-21T10:34:57.712Z,98849.34
2023-08-21T10:35:59.548Z,98850.53
2023-08-21T10:37:01.263Z,98850.97
2023-08-21T10:38:14.092Z,98845.13
2023-08-21T10:39:19.222Z,98838.47
2023-08-21T10:40:26.299Z,98839.78
2023-08-21T10:41:28.653Z,98838.66
2023-08-21T10:42:42.082Z,98839.09
2023-08-21T10:43:46.386Z,98845.50
2023-08-21T10:44:53.894Z,98843.13
2023-08-21T10:45:59.187Z,98843.16
2023-08-21T10:47:29.057Z,98849.34
2023-08-21T10:48:31.072Z,98847.75
2023-08-21T10:49:34.467Z,98847.66
2023-08-21T10:50:37.436Z,98837.34
2023-08-21T10:51:39.419Z,98843.38
2023-08-21T10:52:48.635Z,98843.72
2023-08-21T10:53:50.401Z,98844.94
2023-08-21T10:54:54.390Z,98837.53
2023-08-21T10:55:56.405Z,98846.69
2023-08-21T10:57:06.122Z,98844.44
2023-08-21T10:58:12.593Z,98852.38
2023-08-21T10:59:14.327Z,98847.69
2023-08-21T11:00:18.368Z,98855.59
2023-08-21T11:01:22.443Z,98842.19
2023-08-21T11:02:26.202Z,98848.94
2023-08-21T11:03:28.078Z,98843.00
2023-08-21T11:04:29.872Z,98841.38
2023-08-21T11:05:31.655Z,98843.69
2023-08-21T11:06:36.325Z,98851.59
2023-08-21T11:07:48.881Z,98850.75
2023-08-21T11:08:50.656Z,98839.69
2023-08-21T11:09:52.791Z,98848.78
2023-08-21T11:10:54.625Z,98840.53
2023-08-21T11:11:56.405Z,98841.28
2023-08-21T11:13:03.424Z,98847.53
2023-08-21T11:14:05.143Z,98843.97
2023-08-21T11:15:07.321Z,98845.22
2023-08-21T11:16:10.411Z,98840.81
2023-08-21T11:17:13.343Z,98836.81
2023-08-21T11:18:15.526Z,98836.28
2023-08-21T11:19:17.291Z,98840.88
2023-08-21T11:20:19.020Z,98835.84
2023-08-21T11:21:20.792Z,98838.78
2023-08-21T11:22:29.831Z,98840.88
2023-08-21T11:23:36.047Z,98833.81
2023-08-21T11:24:44.745Z,98834.69
2023-08-21T11:25:46.576Z,98830.03
2023-08-21T11:26:48.905Z,98827.66
2023-08-21T11:27:50.676Z,98822.31
2023-08-21T11:28:52.630Z,98820.22
2023-08-21T11:29:54.415Z,98829.00
2023-08-21T11:31:00.295Z,98826.41
2023-08-21T11:32:04.298Z,98833.25
2023-08-21T11:33:10.719Z,98825.09
2023-08-21T11:34:22.315Z,98828.56
2023-08-21T11:35:26.133Z,98828.34
2023-08-21T11:36:28.038Z,98829.31
2023-08-21T11:37:30.226Z,98827.56
2023-08-21T11:38:32.006Z,98824.22
2023-08-21T11:39:53.672Z,98818.28
2023-08-21T11:41:00.034Z,98824.34
2023-08-21T11:42:01.809Z,98824.34
2023-08-21T11:43:04.924Z,98827.09
2023-08-21T11:44:06.709Z,98821.22
2023-08-21T11:45:11.765Z,98818.91
2023-08-21T11:46:14.894Z,98819.75
2023-08-21T11:47:18.062Z,98820.59
2023-08-21T11:48:23.330Z,98823.84
2023-08-21T11:49:28.155Z,98821.84
2023-08-21T11:50:30.298Z,98814.34
2023-08-21T11:51:39.649Z,98823.13
2023-08-21T11:52:42.491Z,98824.69
2023-08-21T11:53:44.473Z,98810.47
2023-08-21T11:54:52.423Z,98816.47
2023-08-21T11:55:55.724Z,98820.88
2023-08-21T11:56:59.569Z,98814.53
2023-08-21T11:58:03.026Z,98807.13
2023-08-21T11:59:06.788Z,98810.28
2023-08-21T12:00:12.514Z,98815.75
2023-08-21T12:01:19.328Z,98812.28
2023-08-21T12:02:25.406Z,98820.97
2023-08-21T12:03:27.227Z,98813.94
2023-08-21T12:04:29.185Z,98814.31
2023-08-21T12:05:31.076Z,98822.22
2023-08-21T12:06:34.066Z,98817.88
2023-08-21T12:07:36.187Z,98811.94
2023-08-21T12:08:39.128Z,98817.88
2023-08-21T12:09:41.279Z,98815.91
2023-08-21T12:10:43.038Z,98819.06
2023-08-21T12:11:46.267Z,98813.50
2023-08-21T12:12:48.009Z,98812.75
2023-08-21T12:13:49.743Z,98810.75
2023-08-21T12:14:51.939Z,98807.25
2023-08-21T12:15:53.826Z,98811.56
2023-08-21T12:16:56.170Z,98808.41
2023-08-21T12:17:57.916Z,98807.63
2023-08-21T12:18:59.810Z,98796.59